York Harbor, Maine
Current Conditions -  °F | °C
As of 6:58 PM on Friday 28 Nov 2014 (Local Time) from KPSM Reporting Station
Few Clouds Few Clouds  
Wind Chill: 19°   Ceiling: Unl
Heat Index: 26°   Visibility: 10mi
Dew Point: 17°   Wind: 6mph
Humidity: 71%   Direction: 280°W
Pressure: 30.13"   Gusts: NA
Location:  43.14°N, 70.65°W
Report Text: KPSM 282358Z 28005KT 10SM FEW050 M04/M08 A3013 RMK AO2A SLP208 4/007 T10361082 11001 21037 52025
Loading
Personal Weather Stations






























Interactive Weather Map New forecast layout! Learn more

10-Day Weather Forecast

Advertisements
Track Severe Weather on mobile